TimeEDT,TemperatureF,Dew PointF,Humidity,Sea Level PressureIn,VisibilityMPH,Wind Direction,Wind SpeedMPH,Gust SpeedMPH,PrecipitationIn,Events,Conditions,WindDirDegrees,DateUTC
12:51 AM,59.0,57.2,94,30.14,2.5,NE,11.5,-,N/A,,Overcast,40,2013-05-01 04:51:00
12:54 AM,59.0,57.9,96,30.14,2.5,NE,11.5,-,N/A,,Overcast,40,2013-05-01 04:54:00
1:06 AM,59.0,57.2,94,30.13,3.0,NE,11.5,-,N/A,,Overcast,40,2013-05-01 05:06:00
1:54 AM,59.0,57.9,96,30.13,10.0,NE,11.5,-,N/A,,Overcast,40,2013-05-01 05:54:00
2:54 AM,59.0,57.9,96,30.14,7.0,NE,15.0,-,N/A,,Overcast,40,2013-05-01 06:54:00
3:54 AM,59.0,57.0,93,30.14,8.0,NNE,16.1,-,N/A,,Overcast,30,2013-05-01 07:54:00
4:54 AM,59.0,57.0,93,30.14,6.0,NNE,17.3,-,N/A,,Overcast,20,2013-05-01 08:54:00
5:54 AM,57.9,57.0,97,30.15,4.0,NNE,13.8,-,0.00,,Overcast,20,2013-05-01 09:54:00
6:54 AM,57.9,57.0,97,30.17,2.0,NNE,15.0,20.7,N/A,,Overcast,30,2013-05-01 10:54:00
7:54 AM,59.0,57.0,93,30.19,5.0,NE,20.7,25.3,N/A,,Overcast,40,2013-05-01 11:54:00
8:54 AM,59.0,57.9,96,30.19,10.0,NE,17.3,-,0.00,,Overcast,40,2013-05-01 12:54:00
9:27 AM,60.8,57.2,88,30.20,2.5,NE,16.1,-,0.00,Rain,Light Rain,40,2013-05-01 13:27:00
9:54 AM,60.1,57.9,93,30.20,2.0,NE,18.4,24.2,0.00,Rain,Light Rain,40,2013-05-01 13:54:00
10:01 AM,60.8,57.2,88,30.20,1.8,NE,20.7,27.6,0.00,Rain,Light Rain,40,2013-05-01 14:01:00
10:25 AM,60.8,57.2,88,30.20,2.0,NE,25.3,29.9,0.00,Rain,Light Rain,40,2013-05-01 14:25:00
10:54 AM,60.1,59.0,96,30.23,2.0,ENE,20.7,26.5,0.00,,Overcast,70,2013-05-01 14:54:00
11:37 AM,60.8,59.0,94,30.25,5.0,ENE,13.8,23.0,N/A,,Overcast,60,2013-05-01 15:37:00
11:54 AM,61.0,59.0,93,30.25,6.0,ENE,17.3,24.2,N/A,,Overcast,70,2013-05-01 15:54:00
12:37 PM,62.6,59.0,88,30.25,10.0,ENE,18.4,-,N/A,,Overcast,60,2013-05-01 16:37:00
12:54 PM,64.9,60.1,84,30.25,10.0,ENE,19.6,27.6,N/A,,Overcast,60,2013-05-01 16:54:00
1:21 PM,64.4,57.2,77,30.26,10.0,ENE,20.7,27.6,N/A,,Mostly Cloudy,60,2013-05-01 17:21:00
1:54 PM,66.0,57.9,75,30.27,10.0,ENE,20.7,26.5,N/A,,Overcast,60,2013-05-01 17:54:00
2:41 PM,64.4,57.2,77,30.27,10.0,ENE,20.7,27.6,N/A,,Overcast,60,2013-05-01 18:41:00
2:54 PM,64.9,57.9,78,30.27,10.0,NE,18.4,-,N/A,,Overcast,50,2013-05-01 18:54:00
3:02 PM,64.4,57.2,77,30.28,10.0,NE,17.3,-,N/A,,Overcast,50,2013-05-01 19:02:00
3:54 PM,64.0,57.0,78,30.29,10.0,NE,20.7,-,N/A,,Overcast,50,2013-05-01 19:54:00
4:07 PM,62.6,57.2,82,30.29,10.0,NE,17.3,24.2,N/A,,Overcast,50,2013-05-01 20:07:00
4:14 PM,62.6,57.2,82,30.30,10.0,NE,18.4,24.2,N/A,,Overcast,40,2013-05-01 20:14:00
4:54 PM,61.0,55.9,83,30.30,10.0,NE,20.7,-,N/A,,Overcast,40,2013-05-01 20:54:00
5:54 PM,60.1,55.0,83,30.29,10.0,NE,21.9,28.8,N/A,,Overcast,40,2013-05-01 21:54:00
6:54 PM,57.9,54.0,87,30.31,10.0,NNE,17.3,-,N/A,,Overcast,30,2013-05-01 22:54:00
7:54 PM,57.0,54.0,89,30.32,10.0,NNE,13.8,-,N/A,,Overcast,30,2013-05-01 23:54:00
8:06 PM,57.2,53.6,88,30.32,10.0,NNE,12.7,-,N/A,,Overcast,30,2013-05-02 00:06:00
8:54 PM,57.0,54.0,89,30.32,10.0,NE,13.8,-,N/A,,Overcast,40,2013-05-02 00:54:00
9:54 PM,57.0,54.0,89,30.33,10.0,NE,13.8,-,N/A,,Overcast,40,2013-05-02 01:54:00
10:54 PM,57.0,54.0,89,30.33,10.0,NNE,13.8,-,N/A,,Overcast,30,2013-05-02 02:54:00
11:54 PM,57.0,54.0,89,30.33,10.0,NNE,12.7,-,N/A,,Overcast,30,2013-05-02 03:54:00